Time;durP1;ratioP1;P1;durP2;ratioP2;P2;SDS_P1;SDS_P2;PMS_P1;PMS_P2;Temp;Humidity;BMP_temperature;BMP_pressure;BME280_temperature;BME280_humidity;BME280_pressure;Samples;Min_cycle;Max_cycle;Signal;HPM_P1;HPM_P2
2023/06/26 00:00:32;;;;;;;;;;;;;;;10.72;88.03;95358.50;6241156;28;19921;-64
2023/06/26 00:03:35;;;;;;;;;;;;;;;10.78;88.41;95351.88;6232590;28;19971;-61
2023/06/26 00:06:39;;;;;;;;;;;;;;;11.03;87.73;95355.75;6240457;28;20012;-62
2023/06/26 00:09:42;;;;;;;;;;;;;;;11.01;87.51;95362.94;6242611;28;19991;-62
2023/06/26 00:12:47;;;;;;;;;;;;;;;10.94;87.44;95359.22;6237823;28;19928;-62
2023/06/26 00:15:50;;;;;;;;;;;;;;;10.97;87.26;95366.84;6241826;28;19935;-64
2023/06/26 00:18:53;;;;;;;;;;;;;;;11.00;87.28;95362.13;6237225;28;19940;-63
2023/06/26 00:21:57;;;;;;;;;;;;;;;11.01;87.16;95363.81;6224305;28;19921;-62
2023/06/26 00:25:00;;;;;;;;;;;;;;;11.06;86.96;95365.16;6241572;28;19925;-62
2023/06/26 00:28:05;;;;;;;;;;;;;;;11.13;87.46;95361.03;6242632;28;19921;-62
2023/06/26 00:31:09;;;;;;;;;;;;;;;11.34;87.12;95359.03;6212527;28;20598;-62
2023/06/26 00:34:14;;;;;;;;;;;;;;;11.40;86.31;95362.91;6241224;28;19928;-61
2023/06/26 00:37:18;;;;;;;;;;;;;;;11.33;86.20;95372.38;6236012;28;19928;-63
2023/06/26 00:40:21;;;;;;;;;;;;;;;11.46;86.46;95357.06;6226880;28;19921;-62
2023/06/26 00:43:25;;;;;;;;;;;;;;;11.39;85.63;95361.25;6223530;28;19925;-63
2023/06/26 00:46:29;;;;;;;;;;;;;;;11.44;86.15;95354.59;6214480;28;19964;-62
2023/06/26 00:49:34;;;;;;;;;;;;;;;11.44;85.93;95364.31;6205292;28;19929;-63
2023/06/26 00:52:37;;;;;;;;;;;;;;;11.45;85.86;95368.59;6218879;28;19974;-63
2023/06/26 00:55:40;;;;;;;;;;;;;;;11.63;85.63;95363.41;6216298;28;19979;-62
2023/06/26 00:58:43;;;;;;;;;;;;;;;11.61;85.26;95360.13;6230100;28;20011;-62
2023/06/26 01:01:48;;;;;;;;;;;;;;;11.67;85.27;95365.63;6241671;28;19921;-63
2023/06/26 01:04:52;;;;;;;;;;;;;;;11.75;85.90;95357.03;6224248;28;20390;-61
2023/06/26 01:07:57;;;;;;;;;;;;;;;11.84;85.36;95361.41;6242421;28;20015;-62
2023/06/26 01:11:01;;;;;;;;;;;;;;;11.83;84.72;95364.19;6231458;28;20369;-62
2023/06/26 01:14:04;;;;;;;;;;;;;;;11.87;84.46;95371.69;6229512;28;19925;-63
2023/06/26 01:17:07;;;;;;;;;;;;;;;11.90;84.35;95375.84;6228210;28;20344;-62
2023/06/26 01:20:12;;;;;;;;;;;;;;;11.92;83.88;95379.19;6216856;28;20534;-62
2023/06/26 01:23:24;;;;;;;;;;;;;;;11.85;83.69;95378.06;6237137;28;19979;-62
2023/06/26 01:26:30;;;;;;;;;;;;;;;11.95;83.96;95378.06;6227572;28;19983;-62
2023/06/26 01:29:33;;;;;;;;;;;;;;;11.93;83.84;95375.56;6242166;28;20477;-62
2023/06/26 01:32:37;;;;;;;;;;;;;;;11.88;84.12;95375.16;6226678;28;19921;-62
2023/06/26 01:35:41;;;;;;;;;;;;;;;11.80;83.86;95381.09;6230741;28;19921;-62
2023/06/26 01:38:45;;;;;;;;;;;;;;;12.06;83.74;95378.72;6234801;28;20325;-62
2023/06/26 01:41:49;;;;;;;;;;;;;;;11.95;82.73;95381.53;6244874;28;20331;-62
2023/06/26 01:44:53;;;;;;;;;;;;;;;11.74;83.70;95375.59;6242243;28;19951;-62
2023/06/26 01:47:58;;;;;;;;;;;;;;;11.77;84.23;95376.13;6228366;28;20147;-63
2023/06/26 01:51:01;;;;;;;;;;;;;;;11.69;84.51;95378.66;6225741;28;20075;-63
2023/06/26 01:54:05;;;;;;;;;;;;;;;11.74;84.50;95380.88;6241537;28;19955;-62
2023/06/26 01:57:10;;;;;;;;;;;;;;;11.76;84.73;95384.19;6239042;28;19925;-62
2023/06/26 02:00:19;;;;;;;;;;;;;;;11.77;84.37;95388.47;6233463;28;19936;-61
2023/06/26 02:03:24;;;;;;;;;;;;;;;11.81;84.77;95390.69;6243438;28;20337;-63
2023/06/26 02:06:27;;;;;;;;;;;;;;;11.94;84.28;95387.75;6240788;28;20697;-63
2023/06/26 02:09:31;;;;;;;;;;;;;;;11.86;84.42;95387.66;6242460;28;19925;-62
2023/06/26 02:12:36;;;;;;;;;;;;;;;11.98;84.42;95378.59;6234709;28;19974;-62
2023/06/26 02:15:39;;;;;;;;;;;;;;;12.02;84.39;95387.88;6242775;28;20033;-63
2023/06/26 02:18:43;;;;;;;;;;;;;;;12.13;84.75;95387.69;6241712;28;19928;-63
2023/06/26 02:21:49;;;;;;;;;;;;;;;12.36;83.89;95396.03;6239545;28;19943;-62
2023/06/26 02:24:53;;;;;;;;;;;;;;;12.40;83.53;95393.97;6240979;28;19921;-63
2023/06/26 02:27:57;;;;;;;;;;;;;;;12.46;82.97;95398.66;6239417;28;19921;-65
2023/06/26 02:31:01;;;;;;;;;;;;;;;12.56;82.43;95388.03;6235007;28;20407;-62
2023/06/26 02:34:05;;;;;;;;;;;;;;;12.73;82.02;95395.13;6239747;28;19963;-63
2023/06/26 02:37:10;;;;;;;;;;;;;;;12.65;82.19;95395.06;6251668;28;20024;-63
2023/06/26 02:40:13;;;;;;;;;;;;;;;12.84;81.20;95406.47;6239913;28;20383;-63
2023/06/26 02:43:17;;;;;;;;;;;;;;;12.87;81.06;95407.00;6243019;28;19951;-63
2023/06/26 02:46:21;;;;;;;;;;;;;;;12.80;80.82;95408.59;6236727;28;19973;-63
2023/06/26 02:49:25;;;;;;;;;;;;;;;12.88;81.45;95411.31;6239824;28;19978;-62
2023/06/26 02:52:29;;;;;;;;;;;;;;;12.87;80.97;95409.63;6264613;28;19970;-64
2023/06/26 02:55:32;;;;;;;;;;;;;;;12.99;80.05;95416.38;6245450;28;21449;-63
2023/06/26 02:58:36;;;;;;;;;;;;;;;12.96;80.05;95416.66;6261198;28;20070;-62
2023/06/26 03:01:40;;;;;;;;;;;;;;;13.07;80.21;95414.78;6248918;28;19955;-63
2023/06/26 03:04:43;;;;;;;;;;;;;;;13.09;79.73;95412.84;6232169;28;19925;-64
2023/06/26 03:07:46;;;;;;;;;;;;;;;13.24;78.85;95413.94;6239546;28;19962;-63
2023/06/26 03:10:50;;;;;;;;;;;;;;;13.13;78.96;95416.81;6234502;28;19955;-62
2023/06/26 03:13:53;;;;;;;;;;;;;;;13.20;78.45;95420.53;6229706;28;19921;-63
2023/06/26 03:16:58;;;;;;;;;;;;;;;13.19;78.64;95416.22;6237755;28;19927;-63
2023/06/26 03:20:01;;;;;;;;;;;;;;;13.27;79.18;95413.69;6236640;28;19947;-63
2023/06/26 03:23:06;;;;;;;;;;;;;;;13.29;79.33;95417.00;6236255;28;20042;-63
2023/06/26 03:26:10;;;;;;;;;;;;;;;13.41;78.88;95418.41;6230747;28;20044;-63
2023/06/26 03:29:13;;;;;;;;;;;;;;;13.47;78.83;95425.75;6232650;28;20459;-63
2023/06/26 03:32:17;;;;;;;;;;;;;;;13.43;78.76;95418.28;6238933;28;20001;-63
2023/06/26 03:35:19;;;;;;;;;;;;;;;13.64;78.15;95426.72;6237555;28;19925;-62
2023/06/26 03:38:24;;;;;;;;;;;;;;;13.67;77.79;95428.19;6219551;28;19967;-62
2023/06/26 03:41:27;;;;;;;;;;;;;;;13.71;78.41;95429.56;6217204;28;20449;-64
2023/06/26 03:44:31;;;;;;;;;;;;;;;13.83;77.28;95430.97;6216178;28;19939;-63
2023/06/26 03:47:34;;;;;;;;;;;;;;;13.79;76.21;95434.09;6216204;28;19959;-62
2023/06/26 03:50:38;;;;;;;;;;;;;;;13.88;76.56;95428.69;6214983;28;20427;-63
2023/06/26 03:53:42;;;;;;;;;;;;;;;13.91;76.15;95433.66;6212786;28;19960;-63
2023/06/26 03:56:46;;;;;;;;;;;;;;;13.90;76.51;95439.97;6216887;28;19991;-63
2023/06/26 03:59:50;;;;;;;;;;;;;;;14.01;76.12;95443.31;6213795;28;20390;-64
2023/06/26 04:02:52;;;;;;;;;;;;;;;14.33;73.94;95442.69;6216950;28;20421;-63
2023/06/26 04:05:56;;;;;;;;;;;;;;;14.41;74.70;95444.53;6217229;28;20420;-63
2023/06/26 04:08:59;;;;;;;;;;;;;;;14.55;74.89;95449.25;6217946;28;19943;-63
2023/06/26 04:12:03;;;;;;;;;;;;;;;14.75;75.11;95448.03;6218553;28;20011;-65
2023/06/26 04:15:06;;;;;;;;;;;;;;;14.97;72.86;95451.06;6233288;28;19921;-64
2023/06/26 04:18:09;;;;;;;;;;;;;;;15.06;70.92;95444.81;6221497;28;19955;-64
2023/06/26 04:21:13;;;;;;;;;;;;;;;15.03;71.93;95450.41;6215617;28;20012;-64
2023/06/26 04:24:17;;;;;;;;;;;;;;;14.87;71.93;95461.81;6217688;28;19978;-62
2023/06/26 04:27:21;;;;;;;;;;;;;;;14.74;71.39;95451.66;6217427;28;20318;-62
2023/06/26 04:30:24;;;;;;;;;;;;;;;14.56;71.14;95454.41;6225733;28;20085;-63
2023/06/26 04:33:28;;;;;;;;;;;;;;;14.49;70.85;95458.66;6222680;28;19951;-64
2023/06/26 04:36:33;;;;;;;;;;;;;;;14.48;71.06;95458.81;6225574;28;19935;-63
2023/06/26 04:39:37;;;;;;;;;;;;;;;14.41;70.51;95461.25;6234396;28;19990;-62
2023/06/26 04:42:41;;;;;;;;;;;;;;;14.21;71.71;95452.72;6236243;28;19921;-62
2023/06/26 04:45:44;;;;;;;;;;;;;;;14.00;72.58;95452.25;6233565;28;19951;-63
2023/06/26 04:48:48;;;;;;;;;;;;;;;13.86;73.48;95457.09;6235902;28;20385;-63
2023/06/26 04:51:51;;;;;;;;;;;;;;;14.08;74.16;95444.38;6241764;28;19962;-63
2023/06/26 04:54:55;;;;;;;;;;;;;;;14.79;72.16;95449.34;6239020;28;19927;-63
2023/06/26 04:57:58;;;;;;;;;;;;;;;15.60;71.00;95455.81;6230684;28;19963;-64
2023/06/26 05:01:02;;;;;;;;;;;;;;;16.14;68.33;95460.63;6238467;28;19928;-63
2023/06/26 05:04:04;;;;;;;;;;;;;;;16.44;67.47;95455.56;6245830;28;20067;-63
2023/06/26 05:07:06;;;;;;;;;;;;;;;16.46;65.05;95459.72;6239165;28;19921;-63
2023/06/26 05:10:09;;;;;;;;;;;;;;;16.40;64.37;95463.06;6234919;28;19935;-63
2023/06/26 05:13:15;;;;;;;;;;;;;;;17.40;63.83;95465.94;6238610;28;19955;-63
2023/06/26 05:16:17;;;;;;;;;;;;;;;18.60;61.39;95471.44;6235103;28;19982;-63
2023/06/26 05:19:21;;;;;;;;;;;;;;;18.35;59.69;95473.53;6240385;28;19962;-63
2023/06/26 05:22:25;;;;;;;;;;;;;;;18.66;58.69;95464.56;6234821;28;20011;-62
2023/06/26 05:25:29;;;;;;;;;;;;;;;21.23;54.15;95468.09;6234163;28;19925;-62
2023/06/26 05:28:33;;;;;;;;;;;;;;;23.41;47.79;95481.72;6237957;28;20023;-64
2023/06/26 05:31:41;;;;;;;;;;;;;;;22.71;47.42;95490.38;6237800;28;19963;-63
2023/06/26 05:34:50;;;;;;;;;;;;;;;21.34;47.47;95491.59;6232854;28;20020;-62
2023/06/26 05:37:51;;;;;;;;;;;;;;;20.07;48.96;95483.81;6207494;28;20317;-63
2023/06/26 05:40:55;;;;;;;;;;;;;;;19.60;50.63;95483.34;6214589;28;19921;-65
2023/06/26 05:43:56;;;;;;;;;;;;;;;19.73;49.53;95488.03;6219241;28;19921;-66
2023/06/26 05:47:00;;;;;;;;;;;;;;;20.28;48.19;95489.13;6223146;28;20552;-64
2023/06/26 05:50:01;;;;;;;;;;;;;;;22.12;44.95;95488.53;6223371;28;19929;-66
2023/06/26 05:53:03;;;;;;;;;;;;;;;22.33;43.08;95491.03;6211351;28;20373;-65
2023/06/26 05:56:04;;;;;;;;;;;;;;;21.49;43.62;95495.00;6198021;28;20387;-64
2023/06/26 05:59:11;;;;;;;;;;;;;;;21.87;44.12;95486.44;6217978;28;19921;-64
2023/06/26 06:02:15;;;;;;;;;;;;;;;23.18;41.67;95488.41;6218612;28;19922;-71
2023/06/26 06:05:19;;;;;;;;;;;;;;;23.06;41.24;95490.13;6213402;28;19921;-64
2023/06/26 06:08:22;;;;;;;;;;;;;;;22.27;42.03;95486.50;6220746;28;20063;-65
2023/06/26 06:11:27;;;;;;;;;;;;;;;21.56;43.38;95494.19;6211217;28;19921;-64
2023/06/26 06:14:31;;;;;;;;;;;;;;;21.55;42.98;95503.25;6209139;28;19922;-65
2023/06/26 06:17:32;;;;;;;;;;;;;;;21.28;43.46;95497.75;6217437;28;19921;-63
2023/06/26 06:20:35;;;;;;;;;;;;;;;20.51;44.75;95501.41;6215973;28;19921;-64
2023/06/26 06:23:38;;;;;;;;;;;;;;;19.62;46.77;95507.19;6217593;28;19922;-64
2023/06/26 06:26:39;;;;;;;;;;;;;;;18.87;48.86;95518.97;6218608;28;19921;-64
2023/06/26 06:29:43;;;;;;;;;;;;;;;18.91;48.78;95513.09;6219365;28;19921;-64
2023/06/26 06:32:50;;;;;;;;;;;;;;;18.91;49.63;95514.91;6221399;28;19931;-64
2023/06/26 06:35:51;;;;;;;;;;;;;;;19.18;49.19;95516.94;6230933;28;19921;-64
2023/06/26 06:38:52;;;;;;;;;;;;;;;19.64;48.22;95516.63;6239863;28;19928;-64
2023/06/26 06:41:55;;;;;;;;;;;;;;;19.94;46.89;95517.38;6241727;28;20375;-65
2023/06/26 06:44:58;;;;;;;;;;;;;;;20.28;46.38;95512.34;6208569;28;19925;-64
2023/06/26 06:47:59;;;;;;;;;;;;;;;21.32;44.62;95514.28;6196332;28;20383;-64
2023/06/26 06:51:01;;;;;;;;;;;;;;;22.18;43.55;95525.25;6203875;28;19928;-66
2023/06/26 06:54:02;;;;;;;;;;;;;;;23.40;41.86;95518.47;6230652;28;19921;-64
2023/06/26 06:57:07;;;;;;;;;;;;;;;25.03;38.34;95523.19;6240648;28;19925;-65
2023/06/26 07:00:16;;;;;;;;;;;;;;;26.75;35.08;95529.22;6236749;28;19921;-65
2023/06/26 07:03:21;;;;;;;;;;;;;;;26.94;34.66;95519.13;6196868;28;19922;-65
2023/06/26 07:06:24;;;;;;;;;;;;;;;25.89;36.35;95529.47;6200517;28;19922;-65
2023/06/26 07:09:27;;;;;;;;;;;;;;;25.23;36.94;95527.56;6229017;28;19925;-65
2023/06/26 07:12:28;;;;;;;;;;;;;;;24.54;37.57;95526.72;6230651;28;19933;-64
2023/06/26 07:15:32;;;;;;;;;;;;;;;24.76;37.92;95528.00;6226344;28;19922;-68
2023/06/26 07:18:38;;;;;;;;;;;;;;;26.37;34.47;95535.81;6225372;28;19921;-65
2023/06/26 07:21:44;;;;;;;;;;;;;;;26.37;33.57;95538.53;6230687;28;19921;-65
2023/06/26 07:24:45;;;;;;;;;;;;;;;28.14;32.11;95536.53;6216613;28;19930;-64
2023/06/26 07:27:46;;;;;;;;;;;;;;;31.80;27.94;95547.56;6222557;28;20678;-64
2023/06/26 07:30:50;;;;;;;;;;;;;;;34.36;24.55;95542.75;6226579;28;19917;-65
2023/06/26 07:33:54;;;;;;;;;;;;;;;35.59;22.99;95533.56;6218887;28;19920;-65
2023/06/26 07:36:55;;;;;;;;;;;;;;;36.38;21.71;95528.47;6227671;28;19937;-65
2023/06/26 07:39:57;;;;;;;;;;;;;;;37.15;21.77;95539.06;6223579;28;20498;-64
2023/06/26 07:43:00;;;;;;;;;;;;;;;38.04;20.95;95526.13;6225414;28;20275;-65
2023/06/26 07:46:03;;;;;;;;;;;;;;;39.19;19.34;95544.09;6229362;28;19928;-64
2023/06/26 07:49:04;;;;;;;;;;;;;;;39.95;18.65;95541.25;6228514;28;19928;-63
2023/06/26 07:52:10;;;;;;;;;;;;;;;39.69;18.02;95535.59;6231320;28;20386;-64
2023/06/26 07:55:11;;;;;;;;;;;;;;;37.70;19.76;95530.91;6228838;28;20504;-65
2023/06/26 07:58:14;;;;;;;;;;;;;;;34.21;22.26;95519.09;6221164;28;20068;-65
2023/06/26 08:01:16;;;;;;;;;;;;;;;31.00;25.40;95517.75;6232553;28;20075;-64
2023/06/26 08:04:20;;;;;;;;;;;;;;;28.40;28.17;95505.34;6233226;28;19921;-64
2023/06/26 08:07:21;;;;;;;;;;;;;;;26.98;29.87;95514.94;6234466;28;19921;-64
2023/06/26 08:10:22;;;;;;;;;;;;;;;26.82;30.83;95514.56;6239146;28;19920;-64
2023/06/26 08:13:23;;;;;;;;;;;;;;;26.54;30.73;95514.44;6242646;28;20446;-64
2023/06/26 08:16:26;;;;;;;;;;;;;;;25.22;32.23;95515.97;6243758;28;19920;-68
2023/06/26 08:19:32;;;;;;;;;;;;;;;23.87;34.73;95500.31;6244153;28;19983;-64
2023/06/26 08:22:33;;;;;;;;;;;;;;;22.36;37.07;95517.44;6233530;28;19928;-65
2023/06/26 08:25:36;;;;;;;;;;;;;;;20.94;39.34;95510.16;6230586;28;19921;-65
2023/06/26 08:28:39;;;;;;;;;;;;;;;20.48;40.61;95507.97;6222642;28;19920;-65
2023/06/26 08:31:41;;;;;;;;;;;;;;;20.36;41.26;95510.38;6241060;28;20293;-65
2023/06/26 08:34:42;;;;;;;;;;;;;;;20.63;40.63;95516.75;6219421;28;19921;-64
2023/06/26 08:37:48;;;;;;;;;;;;;;;21.84;38.53;95508.25;6222157;28;19925;-63
2023/06/26 08:40:49;;;;;;;;;;;;;;;22.84;36.93;95514.50;6232879;28;20322;-66
2023/06/26 08:43:52;;;;;;;;;;;;;;;23.37;36.40;95510.84;6212441;28;20333;-63
2023/06/26 08:46:53;;;;;;;;;;;;;;;24.46;34.29;95517.09;6245568;28;19925;-65
2023/06/26 08:50:13;;;;;;;;;;;;;;;24.50;33.50;95510.22;6241663;28;19943;-64
2023/06/26 08:53:20;;;;;;;;;;;;;;;24.72;33.51;95521.41;6237964;28;19921;-64
2023/06/26 08:56:22;;;;;;;;;;;;;;;25.17;33.35;95517.69;6238831;28;19928;-64
2023/06/26 08:59:23;;;;;;;;;;;;;;;27.56;30.57;95514.03;6214678;28;20071;-65
2023/06/26 09:02:27;;;;;;;;;;;;;;;30.17;27.68;95527.00;6213966;28;19927;-63
2023/06/26 09:05:34;;;;;;;;;;;;;;;30.93;26.18;95528.00;6248259;28;19925;-63
2023/06/26 09:08:36;;;;;;;;;;;;;;;29.61;26.67;95528.25;6235918;28;19925;-63
2023/06/26 09:11:37;;;;;;;;;;;;;;;28.60;27.59;95530.06;6228020;28;19943;-65
2023/06/26 09:14:40;;;;;;;;;;;;;;;27.92;28.89;95517.47;6243092;28;19932;-64
2023/06/26 09:17:44;;;;;;;;;;;;;;;27.04;29.80;95527.47;6206783;28;20472;-65
2023/06/26 09:20:49;;;;;;;;;;;;;;;25.87;31.71;95518.06;6219383;28;20314;-64
2023/06/26 09:23:54;;;;;;;;;;;;;;;24.62;33.59;95519.22;6235713;28;20323;-64
2023/06/26 09:26:57;;;;;;;;;;;;;;;23.59;35.51;95534.75;6214198;28;19921;-64
2023/06/26 09:30:01;;;;;;;;;;;;;;;22.75;37.76;95536.38;6239558;28;19935;-64
2023/06/26 09:33:15;;;;;;;;;;;;;;;22.93;38.44;95538.41;6228699;28;19933;-64
2023/06/26 09:36:21;;;;;;;;;;;;;;;23.06;39.04;95531.19;6214252;28;20414;-65
2023/06/26 09:39:22;;;;;;;;;;;;;;;23.56;38.01;95522.56;6237238;28;20314;-63
2023/06/26 09:42:23;;;;;;;;;;;;;;;25.10;36.25;95529.31;6237450;28;19922;-65
2023/06/26 09:45:24;;;;;;;;;;;;;;;26.21;34.00;95534.59;6241659;28;19966;-64
2023/06/26 09:48:30;;;;;;;;;;;;;;;26.01;34.40;95534.06;6242382;28;19925;-66
2023/06/26 09:51:32;;;;;;;;;;;;;;;27.58;31.56;95538.13;6228206;28;20280;-64
2023/06/26 09:54:36;;;;;;;;;;;;;;;27.63;30.38;95536.34;6217526;28;19928;-64
2023/06/26 09:57:38;;;;;;;;;;;;;;;26.28;31.12;95534.53;6197124;28;20355;-65
2023/06/26 10:00:39;;;;;;;;;;;;;;;24.26;33.59;95527.13;6241760;28;20398;-65
2023/06/26 10:03:43;;;;;;;;;;;;;;;23.95;33.89;95524.25;6243393;28;20315;-63
2023/06/26 10:06:49;;;;;;;;;;;;;;;23.81;34.18;95527.19;6230822;28;19925;-64
2023/06/26 10:09:55;;;;;;;;;;;;;;;23.43;35.14;95533.34;6240551;28;19929;-64
2023/06/26 10:13:08;;;;;;;;;;;;;;;23.44;35.65;95535.84;6228028;28;20008;-64
2023/06/26 10:16:10;;;;;;;;;;;;;;;23.42;36.59;95542.44;6228888;28;19959;-64
2023/06/26 10:19:16;;;;;;;;;;;;;;;22.85;38.90;95547.50;6242282;28;19960;-64
2023/06/26 10:22:24;;;;;;;;;;;;;;;22.30;40.27;95528.94;6235819;28;19925;-65
2023/06/26 10:25:29;;;;;;;;;;;;;;;22.45;41.29;95538.66;6219917;28;19925;-66
2023/06/26 10:28:34;;;;;;;;;;;;;;;23.01;40.06;95532.84;6202028;28;19922;-65
2023/06/26 10:31:36;;;;;;;;;;;;;;;23.55;38.64;95531.63;6218719;28;20438;-65
2023/06/26 10:34:39;;;;;;;;;;;;;;;24.85;36.08;95525.84;6219348;28;20434;-62
2023/06/26 10:37:44;;;;;;;;;;;;;;;25.05;34.75;95537.25;6244265;28;19921;-68
2023/06/26 10:40:51;;;;;;;;;;;;;;;23.39;36.80;95537.50;6242537;28;19928;-69
2023/06/26 10:43:58;;;;;;;;;;;;;;;21.17;40.65;95535.78;6242177;28;20340;-65
2023/06/26 10:47:01;;;;;;;;;;;;;;;19.76;44.70;95540.19;6242866;28;19964;-68
2023/06/26 10:50:21;;;;;;;;;;;;;;;19.64;45.70;95543.31;6243599;28;19920;-67
2023/06/26 10:53:27;;;;;;;;;;;;;;;20.62;44.81;95547.16;6243426;28;19920;-71
2023/06/26 10:56:40;;;;;;;;;;;;;;;22.50;40.59;95545.03;6244045;28;20007;-68
2023/06/26 10:59:43;;;;;;;;;;;;;;;24.27;38.05;95540.38;6243782;28;20382;-66
2023/06/26 11:02:49;;;;;;;;;;;;;;;25.67;34.92;95542.56;6243821;28;20446;-66
2023/06/26 11:06:08;;;;;;;;;;;;;;;26.16;34.10;95534.50;6243618;28;20035;-68
2023/06/26 11:09:11;;;;;;;;;;;;;;;26.79;32.95;95536.63;6225777;28;19921;-68
2023/06/26 11:12:13;;;;;;;;;;;;;;;27.72;30.34;95534.06;6240150;28;19921;-66
2023/06/26 11:15:15;;;;;;;;;;;;;;;28.14;29.71;95531.13;6236359;28;19921;-68
2023/06/26 11:18:21;;;;;;;;;;;;;;;28.08;30.39;95538.31;6220565;28;20453;-66
2023/06/26 11:21:27;;;;;;;;;;;;;;;27.49;30.98;95541.19;6226836;28;19921;-68
2023/06/26 11:24:29;;;;;;;;;;;;;;;25.53;34.02;95544.63;6235424;28;20279;-66
2023/06/26 11:27:38;;;;;;;;;;;;;;;23.85;36.10;95541.88;6237669;28;19927;-68
2023/06/26 11:30:41;;;;;;;;;;;;;;;22.64;38.07;95551.22;6240581;28;19921;-68
2023/06/26 11:33:45;;;;;;;;;;;;;;;21.93;38.51;95544.53;6229942;28;19920;-67
2023/06/26 11:36:50;;;;;;;;;;;;;;;21.35;39.81;95546.78;6223559;28;19927;-66
2023/06/26 11:39:51;;;;;;;;;;;;;;;21.26;40.17;95564.03;6228702;28;19928;-67
2023/06/26 11:42:54;;;;;;;;;;;;;;;21.41;39.06;95562.06;6220866;28;19921;-67
2023/06/26 11:45:58;;;;;;;;;;;;;;;21.25;39.29;95567.72;6225089;28;20408;-68
2023/06/26 11:48:59;;;;;;;;;;;;;;;20.59;39.59;95579.63;6224850;28;20306;-68
2023/06/26 11:52:03;;;;;;;;;;;;;;;19.78;41.66;95575.53;6218906;28;19921;-67
2023/06/26 11:55:04;;;;;;;;;;;;;;;19.05;43.94;95578.06;6220824;28;19922;-76
2023/06/26 11:58:05;;;;;;;;;;;;;;;18.70;45.15;95583.06;6219830;28;19921;-68
2023/06/26 12:01:06;;;;;;;;;;;;;;;18.54;45.91;95577.88;6217429;28;20434;-67
2023/06/26 12:04:10;;;;;;;;;;;;;;;18.25;46.69;95584.78;6217192;28;19941;-67
2023/06/26 12:07:14;;;;;;;;;;;;;;;18.24;47.42;95587.63;6218405;28;20458;-73
2023/06/26 12:10:18;;;;;;;;;;;;;;;17.77;48.31;95581.44;6218906;28;19959;-67
2023/06/26 12:13:21;;;;;;;;;;;;;;;17.69;49.69;95586.78;6220410;28;19928;-68
2023/06/26 12:16:25;;;;;;;;;;;;;;;17.36;51.61;95589.63;6216967;28;19963;-67
2023/06/26 12:19:30;;;;;;;;;;;;;;;16.96;52.95;95591.44;6217547;28;20012;-67
2023/06/26 12:22:34;;;;;;;;;;;;;;;16.56;53.78;95590.47;6218294;28;19936;-66
2023/06/26 12:25:37;;;;;;;;;;;;;;;16.58;55.05;95582.34;6220152;28;19925;-67
2023/06/26 12:28:40;;;;;;;;;;;;;;;16.73;54.82;95593.09;6218703;28;19921;-67
2023/06/26 12:31:49;;;;;;;;;;;;;;;17.06;53.13;95585.91;6200361;28;19921;-67
2023/06/26 12:34:53;;;;;;;;;;;;;;;17.11;52.78;95590.72;6200473;28;19922;-67
2023/06/26 12:37:57;;;;;;;;;;;;;;;17.38;51.92;95592.94;6229908;28;20369;-69
2023/06/26 12:41:01;;;;;;;;;;;;;;;17.39;52.91;95589.28;6232643;28;19928;-67
2023/06/26 12:44:02;;;;;;;;;;;;;;;17.18;53.53;95602.31;6218728;28;19921;-67
2023/06/26 12:47:03;;;;;;;;;;;;;;;17.18;54.66;95605.81;6204671;28;19921;-67
2023/06/26 12:50:07;;;;;;;;;;;;;;;16.92;55.86;95605.22;6224700;28;19932;-68
2023/06/26 12:53:10;;;;;;;;;;;;;;;16.74;56.77;95605.41;6226496;28;20019;-68
2023/06/26 12:56:14;;;;;;;;;;;;;;;16.41;57.60;95620.50;6219208;28;19922;-67
2023/06/26 12:59:18;;;;;;;;;;;;;;;16.55;58.35;95618.00;6220006;28;20352;-67
2023/06/26 13:02:23;;;;;;;;;;;;;;;16.54;57.69;95619.03;6222551;28;19925;-67
2023/06/26 13:05:29;;;;;;;;;;;;;;;16.80;57.67;95616.19;6224026;28;20390;-67
2023/06/26 13:08:30;;;;;;;;;;;;;;;16.89;57.38;95617.00;6224123;28;19921;-69
2023/06/26 13:11:35;;;;;;;;;;;;;;;16.63;57.81;95616.38;6223985;28;19921;-68
2023/06/26 13:14:38;;;;;;;;;;;;;;;16.31;59.09;95626.81;6228451;28;19921;-67
2023/06/26 13:17:39;;;;;;;;;;;;;;;15.99;59.69;95637.41;6224514;28;19921;-67
2023/06/26 13:20:42;;;;;;;;;;;;;;;15.77;60.43;95633.53;6227122;28;19921;-67
2023/06/26 13:23:46;;;;;;;;;;;;;;;15.62;60.90;95630.63;6226529;28;19921;-67
2023/06/26 13:26:47;;;;;;;;;;;;;;;15.60;61.17;95633.47;6224023;28;20552;-67
2023/06/26 13:29:48;;;;;;;;;;;;;;;15.67;61.45;95634.47;6225411;28;20307;-67
2023/06/26 13:32:51;;;;;;;;;;;;;;;15.73;62.04;95632.19;6226150;28;20410;-67
2023/06/26 13:35:55;;;;;;;;;;;;;;;15.69;62.05;95635.19;6227025;28;19921;-67
2023/06/26 13:38:56;;;;;;;;;;;;;;;15.56;62.66;95649.84;6228087;28;19960;-66
2023/06/26 13:41:57;;;;;;;;;;;;;;;15.59;62.41;95655.66;6223645;28;19922;-66
2023/06/26 13:45:00;;;;;;;;;;;;;;;15.43;62.63;95652.97;6203800;28;19921;-68
2023/06/26 13:48:03;;;;;;;;;;;;;;;15.21;63.46;95649.88;6225698;28;19921;-67
2023/06/26 13:51:07;;;;;;;;;;;;;;;14.95;64.06;95659.66;6224323;28;19968;-66
2023/06/26 13:54:08;;;;;;;;;;;;;;;14.74;65.20;95658.19;6221904;28;19961;-67
2023/06/26 13:57:09;;;;;;;;;;;;;;;14.64;66.44;95665.41;6225364;28;19928;-67
2023/06/26 14:00:12;;;;;;;;;;;;;;;14.47;67.04;95660.94;6227021;28;21942;-67
2023/06/26 14:03:15;;;;;;;;;;;;;;;14.56;68.00;95660.03;6229361;28;19973;-66
2023/06/26 14:06:16;;;;;;;;;;;;;;;14.52;68.26;95663.97;6223565;28;20292;-66
2023/06/26 14:09:21;;;;;;;;;;;;;;;14.61;67.98;95657.78;6222489;28;19921;-67
2023/06/26 14:12:25;;;;;;;;;;;;;;;14.64;67.85;95661.94;6221445;28;19922;-68
2023/06/26 14:15:29;;;;;;;;;;;;;;;14.60;67.37;95661.38;6225661;28;19924;-69
2023/06/26 14:18:34;;;;;;;;;;;;;;;14.81;66.75;95664.53;6223073;28;19921;-68
2023/06/26 14:21:40;;;;;;;;;;;;;;;14.79;66.52;95663.03;6227454;28;19921;-67
2023/06/26 14:24:43;;;;;;;;;;;;;;;14.57;66.40;95667.00;6222645;28;19921;-67
2023/06/26 14:27:47;;;;;;;;;;;;;;;14.60;66.68;95666.69;6223043;28;19925;-67
2023/06/26 14:30:47;;;;;;;;;;;;;;;14.44;66.97;95666.53;6225117;28;19924;-68
2023/06/26 14:33:48;;;;;;;;;;;;;;;14.38;66.95;95658.22;6220501;28;19921;-68
2023/06/26 14:36:50;;;;;;;;;;;;;;;14.33;67.51;95663.13;6209200;28;20016;-67
2023/06/26 14:39:53;;;;;;;;;;;;;;;14.26;68.05;95663.88;6202646;28;19921;-67
2023/06/26 14:42:54;;;;;;;;;;;;;;;14.28;68.24;95668.03;6208698;28;20299;-67
2023/06/26 14:45:58;;;;;;;;;;;;;;;14.03;69.32;95661.69;6211824;28;19945;-69
2023/06/26 14:49:02;;;;;;;;;;;;;;;13.74;70.63;95661.91;6204415;28;20418;-67
2023/06/26 14:52:05;;;;;;;;;;;;;;;13.58;71.66;95659.06;6219516;28;19921;-66
2023/06/26 14:55:08;;;;;;;;;;;;;;;13.38;72.86;95664.44;6218724;28;19936;-67
2023/06/26 14:58:14;;;;;;;;;;;;;;;13.28;73.69;95668.94;6213011;28;20337;-68
2023/06/26 15:01:20;;;;;;;;;;;;;;;13.04;74.02;95667.59;6216046;28;20417;-68
2023/06/26 15:04:24;;;;;;;;;;;;;;;12.89;74.42;95663.78;6217954;28;19928;-70
2023/06/26 15:07:28;;;;;;;;;;;;;;;12.99;74.78;95661.94;6216753;28;20068;-67
2023/06/26 15:10:31;;;;;;;;;;;;;;;12.84;75.00;95663.34;6219505;28;19921;-66
2023/06/26 15:13:32;;;;;;;;;;;;;;;12.89;75.23;95666.41;6214910;28;19948;-68
2023/06/26 15:16:36;;;;;;;;;;;;;;;12.86;75.25;95669.34;6217689;28;20000;-67
2023/06/26 15:19:38;;;;;;;;;;;;;;;12.90;74.88;95670.69;6215304;28;19928;-67
2023/06/26 15:22:40;;;;;;;;;;;;;;;12.78;74.75;95669.22;6220665;28;20387;-68
2023/06/26 15:25:44;;;;;;;;;;;;;;;12.86;74.64;95668.50;6212339;28;19921;-76
2023/06/26 15:28:45;;;;;;;;;;;;;;;12.77;74.99;95672.84;6216556;28;19921;-73
2023/06/26 15:31:52;;;;;;;;;;;;;;;12.78;74.74;95670.03;6214681;28;19917;-75
2023/06/26 15:34:57;;;;;;;;;;;;;;;12.93;74.64;95680.16;6198573;28;19925;-72
2023/06/26 15:38:04;;;;;;;;;;;;;;;12.88;74.56;95683.22;6240215;28;19928;-76
2023/06/26 15:41:08;;;;;;;;;;;;;;;12.88;74.16;95683.22;6239009;28;19924;-78
2023/06/26 15:44:12;;;;;;;;;;;;;;;12.98;74.00;95685.84;6235469;28;19925;-71
2023/06/26 15:47:16;;;;;;;;;;;;;;;12.99;73.98;95680.44;6240870;28;19925;-71
2023/06/26 15:50:18;;;;;;;;;;;;;;;12.97;74.16;95684.19;6246341;28;19921;-72
2023/06/26 15:53:33;;;;;;;;;;;;;;;12.91;73.79;95684.72;6227681;28;19921;-69
2023/06/26 15:56:34;;;;;;;;;;;;;;;13.07;73.19;95677.03;6241180;28;20465;-70